This is the latest recevied weather packets stored in our database for station/object K7FLA. If no packets are shown the sender has not sent any weather packets the latest 10 day(s).
| Time | Temp. | Humidity | Pressure | Rain* | Wind** | Luminosity | Snow |
|---|---|---|---|---|---|---|---|
| 1778079290 | 16.67° C | 62% | 1098 hPa | 0 mm | - | 177 W/m² | - |
| 1778078988 | 16.11° C | 63% | 1098.3 hPa | 0 mm | - | 150 W/m² | - |
| 1778078684 | 16.11° C | 65% | 1098.2 hPa | 0 mm | - | 130 W/m² | - |
| 1778078383 | 15° C | 67% | 1098.3 hPa | 0 mm | - | 116 W/m² | - |
| 1778078079 | 15° C | 69% | 1098.3 hPa | 0 mm | - | 102 W/m² | - |
| 1778077778 | 14.44° C | 72% | 1098.2 hPa | 0 mm | - | 91 W/m² | - |
| 1778077475 | 13.89° C | 73% | 1098 hPa | 0 mm | - | 80 W/m² | - |
| 1778077173 | 13.89° C | 74% | 1098.1 hPa | 0 mm | - | 76 W/m² | - |
| 1778076871 | 13.33° C | 80% | 1098.1 hPa | 0 mm | - | 70 W/m² | - |
| 1778076569 | 11.11° C | 86% | 1097.9 hPa | 0 mm | - | 57 W/m² | - |
| 1778076266 | 11.11° C | 86% | 1097.9 hPa | 0 mm | - | 57 W/m² | - |
| 1778075962 | 10.56° C | 90% | 1097.9 hPa | 0 mm | - | 52 W/m² | - |
| 1778075660 | 9.44° C | 91% | 1097.8 hPa | 0 mm | - | 48 W/m² | - |
| 1778075356 | 8.89° C | 91% | 1097.9 hPa | 0 mm | - | 43 W/m² | - |
| 1778075052 | 8.33° C | 93% | 1097.7 hPa | 0 mm | - | 38 W/m² | - |
| 1778074749 | 7.78° C | 93% | 1097.6 hPa | 0 mm | - | 34 W/m² | - |
| 1778074446 | 7.22° C | 93% | 1097.8 hPa | 0 mm | - | 30 W/m² | - |
| 1778074143 | 7.22° C | 93% | 1097.7 hPa | 0 mm | - | 23 W/m² | - |
| 1778073840 | 7.22° C | 93% | 1097.6 hPa | 0 mm | - | 18 W/m² | - |
| 1778073538 | 7.22° C | 94% | 1097.7 hPa | 0 mm | - | 15 W/m² | - |
| 1778073233 | 7.22° C | 93% | 1097.6 hPa | 0 mm | - | 12 W/m² | - |
| 1778072931 | 7.22° C | 94% | 1097.5 hPa | 0 mm | - | 9 W/m² | - |
| 1778072627 | 7.22° C | 94% | 1097.4 hPa | 0 mm | - | 7 W/m² | - |
| 1778072325 | 7.22° C | 94% | 1097.3 hPa | 0 mm | - | 4 W/m² | - |
| 1778072023 | 7.22° C | 94% | 1097.5 hPa | 0 mm | - | 2 W/m² | - |
* Rain latest hour (hover to see other rain measurements)
** Current wind speed in m/s (hover to see current wind gust speed)